Bowie, Arizona
Current Conditions -  °F | °C
As of 10:51 PM on Tuesday 21 Oct 2014 (Local Time) from KSAD Reporting Station
Clear Clear  
Wind Chill: 63°   Ceiling: Unl
Heat Index: 63°   Visibility: 10mi
Dew Point: 54°   Wind: 5mph
Humidity: 72%   Direction: 120°ESE
Pressure: 29.98"   Gusts: NA
Location:  32.33°N, 109.49°W
Report Text: KSAD 220551Z AUTO 12004KT 10SM CLR 17/12 A2998 RMK AO2 SLP113 T01720122 10250 20172 51014
Loading
Personal Weather Stations






























Interactive Weather Map
Tropical Storm Tracking
New forecast layout! Learn more

10-Day Weather Forecast

Advertisements
Track Severe Weather on mobile